createdAt,value
2023-03-21T00:04:23.461Z,73
2023-03-21T00:09:22.952Z,74
2023-03-21T00:14:22.573Z,75
2023-03-21T00:19:22.057Z,76
2023-03-21T00:24:22.186Z,77
2023-03-21T00:29:21.726Z,78
2023-03-21T00:34:27.167Z,79
2023-03-21T00:39:18.840Z,80
2023-03-21T00:44:18.783Z,80
2023-03-21T00:49:18.140Z,79
2023-03-21T00:54:18.030Z,79
2023-03-21T00:59:02.667Z,79
2023-03-21T01:04:02.443Z,78
2023-03-21T01:09:04.168Z,78
2023-03-21T01:14:25.384Z,78
2023-03-21T01:19:02.056Z,78
2023-03-21T01:24:00.381Z,77
2023-03-21T01:29:00.413Z,77
2023-03-21T01:34:01.200Z,77
2023-03-21T01:38:58.943Z,77
2023-03-21T01:43:58.740Z,77
2023-03-21T01:49:08.377Z,77
2023-03-21T01:54:09.028Z,78
2023-03-21T01:59:06.320Z,78
2023-03-21T02:04:05.649Z,79
2023-03-21T02:09:06.663Z,79
2023-03-21T02:14:23.381Z,79
2023-03-21T02:19:03.644Z,79
2023-03-21T02:24:03.525Z,78
2023-03-21T02:29:02.620Z,79
2023-03-21T02:34:02.688Z,79
2023-03-21T02:39:45.174Z,80
2023-03-21T02:43:51.839Z,81
2023-03-21T02:49:01.338Z,82
2023-03-21T02:53:55.612Z,83
2023-03-21T02:58:50.965Z,84
2023-03-21T03:03:48.130Z,85
2023-03-21T03:09:02.505Z,85
2023-03-21T03:13:48.019Z,85
2023-03-21T03:18:49.408Z,85
2023-03-21T03:23:45.387Z,86
2023-03-21T03:28:45.588Z,86
2023-03-21T03:33:44.792Z,86
2023-03-21T03:38:44.873Z,87
2023-03-21T03:43:42.290Z,88
2023-03-21T03:48:42.184Z,88
2023-03-21T03:53:41.724Z,89
2023-03-21T03:58:55.272Z,89
2023-03-21T04:00:43.517Z,89
2023-03-21T04:05:02.429Z,89
2023-03-21T04:10:03.121Z,90
2023-03-21T04:15:10.610Z,90
2023-03-21T04:20:20.865Z,91
2023-03-21T04:25:00.625Z,91
2023-03-21T04:30:00.123Z,91
2023-03-21T04:34:59.555Z,91
2023-03-21T04:39:59.298Z,91
2023-03-21T04:45:07.335Z,92
2023-03-21T04:50:07.426Z,92
2023-03-21T04:55:09.249Z,92
2023-03-21T04:59:23.041Z,92
2023-03-21T05:04:23.125Z,92
2023-03-21T05:09:22.453Z,92
2023-03-21T05:14:22.380Z,92
2023-03-21T05:19:20.744Z,92
2023-03-21T05:24:20.316Z,93
2023-03-21T05:29:20.099Z,93
2023-03-21T05:34:21.023Z,93
2023-03-21T05:39:17.497Z,93
2023-03-21T05:44:17.598Z,93
2023-03-21T05:49:17.019Z,93
2023-03-21T05:54:16.864Z,93
2023-03-21T05:59:02.337Z,93
2023-03-21T06:04:02.433Z,93
2023-03-21T06:09:01.363Z,93
2023-03-21T06:14:01.041Z,94
2023-03-21T06:19:00.556Z,94
2023-03-21T06:24:00.976Z,94
2023-03-21T06:29:00.357Z,94
2023-03-21T06:34:00.337Z,94
2023-03-21T06:39:08.456Z,93
2023-03-21T06:44:08.044Z,92
2023-03-21T06:49:08.236Z,89
2023-03-21T06:54:07.469Z,87
2023-03-21T06:59:07.906Z,85
2023-03-21T07:04:07.958Z,83
2023-03-21T07:09:08.812Z,82
2023-03-21T07:14:06.405Z,82
2023-03-21T07:19:06.201Z,81
2023-03-21T07:24:07.683Z,81
2023-03-21T07:29:04.905Z,81
2023-03-21T07:34:04.780Z,79
2023-03-21T07:39:05.388Z,77
2023-03-21T07:44:03.869Z,74
2023-03-21T07:49:03.448Z,74
2023-03-21T07:54:03.954Z,74
2023-03-21T07:59:02.799Z,74
2023-03-21T08:00:48.952Z,74
2023-03-21T08:05:23.496Z,72
2023-03-21T08:10:25.269Z,70
2023-03-21T08:15:21.789Z,69
2023-03-21T08:20:21.784Z,69
2023-03-21T08:25:21.301Z,69
2023-03-21T08:30:21.594Z,68
2023-03-21T08:35:18.820Z,68
2023-03-21T08:40:18.546Z,68
2023-03-21T08:45:17.710Z,68
2023-03-21T08:50:17.353Z,68
2023-03-21T08:55:16.753Z,67
2023-03-21T08:59:36.627Z,68
2023-03-21T09:04:36.956Z,67
2023-03-21T09:09:36.236Z,68
2023-03-21T09:14:39.899Z,67
2023-03-21T09:19:33.888Z,68
2023-03-21T09:24:33.921Z,67
2023-03-21T09:29:34.122Z,67
2023-03-21T09:34:33.020Z,67
2023-03-21T09:39:31.962Z,67
2023-03-21T09:44:31.704Z,66
2023-03-21T09:50:14.602Z,67
2023-03-21T09:54:33.083Z,67
2023-03-21T09:59:19.150Z,66
2023-03-21T10:04:19.348Z,64
2023-03-21T10:09:18.713Z,65
2023-03-21T10:14:18.447Z,65
2023-03-21T10:19:16.015Z,66
2023-03-21T10:24:15.735Z,65
2023-03-21T10:29:15.059Z,66
2023-03-21T10:34:14.500Z,65
2023-03-21T10:39:13.838Z,67
2023-03-21T10:44:13.424Z,67
2023-03-21T10:49:13.708Z,67
2023-03-21T10:54:13.076Z,66
2023-03-21T10:59:00.653Z,64
2023-03-21T11:04:07.648Z,64
2023-03-21T11:09:07.405Z,65
2023-03-21T11:14:07.975Z,61
2023-03-21T11:19:06.858Z,62
2023-03-21T11:24:07.957Z,62
2023-03-21T11:29:08.019Z,61
2023-03-21T11:34:05.162Z,58
2023-03-21T11:39:04.933Z,59
2023-03-21T11:44:05.392Z,59
2023-03-21T11:49:02.993Z,59
2023-03-21T11:54:02.582Z,58
2023-03-21T11:59:02.887Z,57
2023-03-21T12:03:58.585Z,55
2023-03-21T12:08:50.898Z,55
2023-03-21T12:13:50.923Z,56
2023-03-21T12:18:50.671Z,54
2023-03-21T12:23:51.778Z,55
2023-03-21T12:28:48.135Z,56
2023-03-21T12:33:48.238Z,52
2023-03-21T12:38:47.661Z,50
2023-03-21T12:43:47.611Z,50
2023-03-21T12:48:45.638Z,52
2023-03-21T12:53:45.439Z,53
2023-03-21T12:58:45.611Z,51
2023-03-21T13:00:32.520Z,52
2023-03-21T13:05:05.582Z,50
2023-03-21T13:10:05.700Z,51
2023-03-21T13:15:06.173Z,50
2023-03-21T13:20:05.194Z,50
2023-03-21T13:25:02.768Z,50
2023-03-21T13:30:02.760Z,50
2023-03-21T13:35:02.103Z,51
2023-03-21T13:40:01.770Z,51
2023-03-21T13:45:01.412Z,51
2023-03-21T13:50:00.315Z,49
2023-03-21T13:55:00.467Z,48
2023-03-21T13:59:05.475Z,49
2023-03-21T14:04:06.835Z,50
2023-03-21T14:09:03.420Z,49
2023-03-21T14:14:03.489Z,49
2023-03-21T14:19:05.518Z,49
2023-03-21T14:24:02.783Z,50
2023-03-21T14:29:00.231Z,50
2023-03-21T14:33:59.769Z,50
2023-03-21T14:38:58.936Z,50
2023-03-21T14:44:10.243Z,50
2023-03-21T14:49:07.325Z,50
2023-03-21T14:54:07.078Z,48
2023-03-21T14:59:08.485Z,48
2023-03-21T15:04:05.575Z,45
2023-03-21T15:09:05.151Z,44
2023-03-21T15:14:05.302Z,45
2023-03-21T15:19:03.393Z,45
2023-03-21T15:24:03.025Z,47
2023-03-21T15:29:03.045Z,49
2023-03-21T15:33:51.705Z,48
2023-03-21T15:38:51.265Z,48
2023-03-21T15:43:51.583Z,50
2023-03-21T15:48:50.626Z,50
2023-03-21T15:53:50.776Z,49
2023-03-21T15:58:47.306Z,50
2023-03-21T16:03:47.964Z,51
2023-03-21T16:08:47.188Z,51
2023-03-21T16:13:46.275Z,53
2023-03-21T16:18:45.787Z,50
2023-03-21T16:23:46.184Z,50
2023-03-21T16:28:45.256Z,52
2023-03-21T16:33:46.558Z,52
2023-03-21T16:38:43.239Z,53
2023-03-21T16:43:42.868Z,54
2023-03-21T16:48:42.591Z,54
2023-03-21T16:53:42.163Z,55
2023-03-21T16:58:40.448Z,55
2023-03-21T17:00:27.819Z,56
2023-03-21T17:05:00.261Z,56
2023-03-21T17:09:59.920Z,56
2023-03-21T17:14:59.078Z,56
2023-03-21T17:19:59.081Z,56
2023-03-21T17:25:08.214Z,56
2023-03-21T17:30:08.784Z,56
2023-03-21T17:35:06.325Z,57
2023-03-21T17:40:05.945Z,56
2023-03-21T17:45:05.952Z,56
2023-03-21T17:50:04.624Z,57
2023-03-21T17:55:04.194Z,58
2023-03-21T17:59:24.157Z,58
2023-03-21T18:04:23.485Z,58
2023-03-21T18:09:23.257Z,59
2023-03-21T18:14:30.650Z,61
2023-03-21T18:19:23.172Z,61
2023-03-21T18:24:24.066Z,62
2023-03-21T18:30:47.581Z,63
2023-03-21T18:34:20.644Z,65
2023-03-21T18:39:20.203Z,66
2023-03-21T18:44:31.128Z,66
2023-03-21T18:50:13.528Z,67
2023-03-21T18:54:17.334Z,68
2023-03-21T18:59:03.042Z,68
2023-03-21T19:04:29.869Z,68
2023-03-21T19:09:02.124Z,70
2023-03-21T19:14:01.608Z,70
2023-03-21T19:19:07.160Z,70
2023-03-21T19:24:35.925Z,70
2023-03-21T19:28:59.191Z,71
2023-03-21T19:33:59.109Z,72
2023-03-21T19:39:09.477Z,71
2023-03-21T19:44:09.992Z,71
2023-03-21T19:49:07.696Z,71
2023-03-21T19:54:06.782Z,71
2023-03-21T19:59:06.764Z,72
2023-03-21T20:04:05.083Z,73
2023-03-21T20:09:52.907Z,73
2023-03-21T20:14:04.671Z,74
2023-03-21T20:19:03.616Z,75
2023-03-21T20:24:04.097Z,76
2023-03-21T20:30:05.662Z,77
2023-03-21T20:34:04.078Z,77
2023-03-21T20:38:51.033Z,78
2023-03-21T20:44:45.074Z,79
2023-03-21T20:48:50.384Z,79
2023-03-21T20:53:51.655Z,80
2023-03-21T20:59:17.589Z,80
2023-03-21T21:08:48.018Z,82
2023-03-21T21:13:45.952Z,83
2023-03-21T21:18:45.082Z,83
2023-03-21T21:23:45.093Z,84
2023-03-21T21:28:44.136Z,84
2023-03-21T21:33:44.033Z,85
2023-03-21T21:38:44.066Z,85
2023-03-21T21:43:43.702Z,86
2023-03-21T21:48:41.289Z,86
2023-03-21T21:53:41.033Z,86
2023-03-21T21:58:40.112Z,87
2023-03-21T22:00:26.476Z,87
2023-03-21T22:05:01.586Z,88
2023-03-21T22:10:01.065Z,88
2023-03-21T22:15:01.287Z,88
2023-03-21T22:20:15.228Z,89
2023-03-21T22:25:02.027Z,89
2023-03-21T22:30:08.768Z,89
2023-03-21T22:35:08.362Z,90
2023-03-21T22:40:09.417Z,90
2023-03-21T22:45:06.460Z,89
2023-03-21T22:50:06.556Z,88
2023-03-21T22:55:08.145Z,87
2023-03-21T22:59:18.650Z,86
2023-03-21T23:04:18.795Z,86
2023-03-21T23:09:18.026Z,83
2023-03-21T23:14:19.201Z,81
2023-03-21T23:19:15.521Z,80
2023-03-21T23:24:15.391Z,79
2023-03-21T23:29:14.599Z,79
2023-03-21T23:34:14.337Z,80
2023-03-21T23:39:13.714Z,82
2023-03-21T23:44:13.477Z,83
2023-03-21T23:49:13.697Z,84
2023-03-21T23:54:13.458Z,86
2023-03-21T23:59:00.740Z,86
